Terminal Aerodrome Forecast
Issued by NWS

Home | Current Version | Previous Version | Text Only | Print | Product List | Glossary On
Versions: 1 2 3 4 5 6 7 8 9 10 11 12
000
FTUS42 KTBW 221734
TAFPIE
TAF
KPIE 221734Z 2218/2318 02007KT P6SM SCT050 SCT250
     FM222000 02008KT P6SM VCTS SCT035CB BKN060
     FM230000 06010KT P6SM SCT060 BKN250
     FM230400 07007KT P6SM FEW040 BKN250
     FM231400 07007KT P6SM SCT025 BKN250
     FM231700 07007KT P6SM VCSH BKN040=

USA.gov is the U.S. government's official web portal to all federal, state and local government web resources and services.